Time;durP1;ratioP1;P1;durP2;ratioP2;P2;SDS_P1;SDS_P2;PMS_P1;PMS_P2;Temp;Humidity;BMP_temperature;BMP_pressure;BME280_temperature;BME280_humidity;BME280_pressure;Samples;Min_cycle;Max_cycle;Signal;HPM_P1;HPM_P2
2023/07/19 00:01:14;;;;;;;5.00;2.40;;;25.00;73.80;;;;;;5019754;28;20413;-85
2023/07/19 00:03:42;;;;;;;5.07;2.17;;;25.00;73.10;;;;;;5047901;28;20457;-85
2023/07/19 00:06:09;;;;;;;4.57;2.38;;;24.90;73.10;;;;;;5028950;28;20413;-83
2023/07/19 00:08:38;;;;;;;6.45;2.38;;;24.80;73.60;;;;;;5040481;28;20420;-84
2023/07/19 00:11:04;;;;;;;4.10;2.50;;;24.90;73.80;;;;;;5023303;28;20414;-84
2023/07/19 00:13:31;;;;;;;4.30;2.20;;;25.00;73.70;;;;;;5047321;28;20787;-84
2023/07/19 00:15:57;;;;;;;3.42;2.22;;;25.00;73.80;;;;;;5033458;28;20808;-84
2023/07/19 00:18:24;;;;;;;3.47;2.27;;;25.00;73.90;;;;;;5022391;28;20444;-84
2023/07/19 00:20:50;;;;;;;4.18;2.22;;;25.00;73.30;;;;;;5029614;28;20462;-85
2023/07/19 00:23:16;;;;;;;4.00;2.30;;;25.00;72.60;;;;;;5037340;28;20424;-84
2023/07/19 00:25:45;;;;;;;6.05;2.42;;;25.00;72.30;;;;;;5027865;28;20488;-84
2023/07/19 00:28:12;;;;;;;4.75;2.20;;;24.90;71.30;;;;;;5040275;28;20415;-84
2023/07/19 00:30:38;;;;;;;2.88;2.22;;;24.90;70.00;;;;;;5024830;28;20418;-85
2023/07/19 00:33:05;;;;;;;5.88;2.20;;;24.80;69.60;;;;;;5027816;28;20407;-85
2023/07/19 00:35:32;;;;;;;4.20;2.13;;;24.80;68.90;;;;;;5046688;28;20912;-85
2023/07/19 00:37:58;;;;;;;4.65;2.25;;;24.80;69.30;;;;;;5026212;28;20405;-85
2023/07/19 00:40:25;;;;;;;3.73;2.43;;;24.80;69.30;;;;;;5038780;28;20864;-85
2023/07/19 00:42:57;;;;;;;3.10;2.17;;;24.90;69.50;;;;;;5030866;28;20412;-86
2023/07/19 00:45:26;;;;;;;3.80;2.20;;;24.90;69.20;;;;;;5037764;28;20416;-86
2023/07/19 00:47:55;;;;;;;3.22;2.20;;;24.90;69.20;;;;;;5026833;28;20510;-85
2023/07/19 00:50:23;;;;;;;3.25;2.20;;;24.90;69.20;;;;;;5020493;28;20981;-86
2023/07/19 00:52:52;;;;;;;3.58;2.00;;;24.90;68.70;;;;;;5021672;28;20413;-85
2023/07/19 00:55:19;;;;;;;5.43;2.17;;;24.80;68.50;;;;;;5034626;28;20465;-85
2023/07/19 00:57:49;;;;;;;4.30;2.20;;;24.80;68.60;;;;;;5044746;28;20455;-86
2023/07/19 01:00:16;;;;;;;2.95;2.00;;;24.80;68.50;;;;;;5029416;28;20414;-85
2023/07/19 01:02:43;;;;;;;3.60;2.00;;;24.70;68.00;;;;;;5058569;28;20415;-85
2023/07/19 01:05:10;;;;;;;3.58;2.10;;;24.70;68.00;;;;;;5061085;28;20423;-85
2023/07/19 01:07:37;;;;;;;3.90;2.13;;;24.70;68.50;;;;;;5024100;28;20429;-86
2023/07/19 01:10:09;;;;;;;3.22;2.00;;;24.60;68.10;;;;;;5029159;28;20773;-85
2023/07/19 01:12:39;;;;;;;4.53;1.98;;;24.50;68.10;;;;;;5026779;28;20404;-86
2023/07/19 01:15:09;;;;;;;3.67;2.10;;;24.40;68.60;;;;;;5022870;28;20417;-85
2023/07/19 01:17:38;;;;;;;7.00;2.30;;;24.50;68.20;;;;;;5029420;28;20409;-85
2023/07/19 01:20:06;;;;;;;5.30;2.30;;;24.50;68.30;;;;;;5045319;28;20415;-84
2023/07/19 01:22:33;;;;;;;4.25;2.10;;;24.50;68.30;;;;;;5034289;28;20748;-85
2023/07/19 01:25:06;;;;;;;4.43;2.20;;;24.50;68.80;;;;;;5032957;28;20523;-86
2023/07/19 01:27:32;;;;;;;4.60;2.17;;;24.50;68.70;;;;;;5062085;28;20444;-86
2023/07/19 01:29:58;;;;;;;2.17;1.95;;;24.60;68.90;;;;;;5030645;28;20409;-87
2023/07/19 01:32:25;;;;;;;3.00;2.00;;;24.60;69.00;;;;;;5044930;28;20581;-87
2023/07/19 01:34:51;;;;;;;3.00;2.23;;;24.60;68.90;;;;;;5042901;28;20411;-86
2023/07/19 01:37:18;;;;;;;7.68;2.03;;;24.60;68.10;;;;;;5044199;28;20412;-86
2023/07/19 01:39:44;;;;;;;5.57;2.20;;;24.60;67.90;;;;;;5028874;28;20901;-86
2023/07/19 01:42:18;;;;;;;4.20;2.20;;;24.60;67.70;;;;;;5033962;28;20907;-85
2023/07/19 01:44:44;;;;;;;5.80;2.03;;;24.50;67.50;;;;;;5035067;28;20448;-86
2023/07/19 01:47:11;;;;;;;2.72;2.13;;;24.50;67.70;;;;;;5018237;28;20429;-85
2023/07/19 01:49:40;;;;;;;5.10;2.20;;;24.50;68.00;;;;;;5040847;28;20501;-85
2023/07/19 01:52:07;;;;;;;2.47;2.17;;;24.50;68.20;;;;;;5038595;28;20400;-86
2023/07/19 01:54:33;;;;;;;4.47;2.20;;;24.50;69.20;;;;;;5045673;28;20498;-86
2023/07/19 01:56:59;;;;;;;4.75;2.33;;;24.60;68.70;;;;;;5024034;28;20947;-84
2023/07/19 01:59:26;;;;;;;4.13;2.28;;;24.60;68.60;;;;;;5024491;28;20412;-85
2023/07/19 02:01:53;;;;;;;4.80;2.10;;;24.60;68.50;;;;;;5023381;28;20403;-85
2023/07/19 02:04:20;;;;;;;5.22;2.20;;;24.60;68.20;;;;;;5047482;28;20411;-86
2023/07/19 02:06:46;;;;;;;5.57;2.33;;;24.60;68.00;;;;;;5044528;28;20463;-85
2023/07/19 02:09:15;;;;;;;4.30;2.10;;;24.60;68.10;;;;;;5025407;28;20452;-85
2023/07/19 02:11:41;;;;;;;3.15;2.30;;;24.60;68.10;;;;;;5021671;28;20428;-86
2023/07/19 02:14:08;;;;;;;4.05;2.10;;;24.60;68.00;;;;;;5026777;28;20441;-85
2023/07/19 02:16:36;;;;;;;5.45;2.20;;;24.50;67.60;;;;;;5031956;28;20400;-85
2023/07/19 02:19:07;;;;;;;3.60;2.00;;;24.50;67.50;;;;;;5040408;28;20975;-84
2023/07/19 02:21:34;;;;;;;2.97;2.10;;;24.50;67.60;;;;;;5038894;28;20468;-85
2023/07/19 02:24:00;;;;;;;4.15;2.17;;;24.50;67.60;;;;;;5022242;28;20404;-85
2023/07/19 02:26:26;;;;;;;4.50;2.30;;;24.50;67.60;;;;;;5047487;28;20407;-85
2023/07/19 02:28:53;;;;;;;3.65;2.00;;;24.50;67.60;;;;;;5035223;28;20421;-84
2023/07/19 02:31:19;;;;;;;6.55;2.13;;;24.40;67.80;;;;;;5040748;28;20460;-85
2023/07/19 02:33:45;;;;;;;3.85;2.15;;;24.40;68.00;;;;;;5044392;28;20485;-85
2023/07/19 02:36:13;;;;;;;5.13;2.20;;;24.40;67.90;;;;;;5037866;28;20744;-85
2023/07/19 02:38:39;;;;;;;4.23;2.30;;;24.40;68.10;;;;;;5023194;28;20415;-86
2023/07/19 02:41:07;;;;;;;3.97;2.33;;;24.30;68.10;;;;;;5042632;28;20421;-85
2023/07/19 02:43:33;;;;;;;3.88;2.00;;;24.30;68.30;;;;;;5040714;28;20911;-86
2023/07/19 02:46:00;;;;;;;5.43;2.20;;;24.30;68.30;;;;;;5043861;28;20416;-85
2023/07/19 02:48:27;;;;;;;3.10;2.03;;;24.30;68.30;;;;;;5023526;28;20959;-85
2023/07/19 02:50:53;;;;;;;5.95;2.28;;;24.20;68.30;;;;;;5022818;28;21396;-85
2023/07/19 02:53:20;;;;;;;7.43;2.40;;;24.10;68.50;;;;;;5040465;28;20414;-85
2023/07/19 02:55:47;;;;;;;5.13;2.10;;;24.10;68.70;;;;;;5024316;28;20986;-85
2023/07/19 02:58:18;;;;;;;5.65;2.25;;;24.10;69.10;;;;;;5028776;28;20407;-86
2023/07/19 03:00:44;;;;;;;4.57;2.35;;;24.10;69.20;;;;;;5025216;28;20405;-85
2023/07/19 03:03:13;;;;;;;4.47;2.10;;;24.20;69.50;;;;;;5034889;28;20484;-85
2023/07/19 03:05:44;;;;;;;4.10;2.28;;;24.30;69.40;;;;;;5043028;28;20421;-85
2023/07/19 03:08:14;;;;;;;6.40;2.20;;;24.30;69.30;;;;;;5020242;28;20409;-84
2023/07/19 03:10:40;;;;;;;4.17;2.10;;;24.30;69.30;;;;;;5042269;28;20416;-85
2023/07/19 03:13:09;;;;;;;4.50;2.15;;;24.30;69.70;;;;;;5033197;28;20537;-85
2023/07/19 03:15:47;;;;;;;6.00;2.15;;;24.30;69.70;;;;;;5051629;28;20407;-84
2023/07/19 03:18:19;;;;;;;7.20;2.50;;;24.30;69.80;;;;;;5032219;28;20420;-84
2023/07/19 03:20:56;;;;;;;6.28;2.15;;;24.20;69.90;;;;;;5028831;28;20494;-84
2023/07/19 03:23:22;;;;;;;3.80;1.98;;;24.20;70.30;;;;;;5033406;28;20409;-84
2023/07/19 03:25:48;;;;;;;4.77;2.30;;;24.20;70.30;;;;;;5030429;28;20461;-84
2023/07/19 03:28:15;;;;;;;5.27;2.07;;;24.20;70.00;;;;;;5046182;28;20407;-84
2023/07/19 03:30:41;;;;;;;5.68;2.28;;;24.30;70.30;;;;;;5023689;28;20438;-84
2023/07/19 03:33:07;;;;;;;4.63;2.20;;;24.30;70.10;;;;;;5043553;28;20407;-85
2023/07/19 03:35:34;;;;;;;3.72;2.10;;;24.30;69.90;;;;;;5051445;28;20407;-84
2023/07/19 03:38:05;;;;;;;4.70;2.17;;;24.40;70.10;;;;;;5032168;28;20411;-84
2023/07/19 03:40:32;;;;;;;4.60;2.30;;;24.40;69.70;;;;;;5047984;28;20431;-83
2023/07/19 03:43:00;;;;;;;7.80;2.35;;;24.40;69.90;;;;;;5029302;28;20778;-84
2023/07/19 03:45:28;;;;;;;4.15;2.40;;;24.50;70.20;;;;;;5060608;28;20433;-85
2023/07/19 03:47:55;;;;;;;4.30;2.28;;;24.40;70.10;;;;;;5049980;28;20409;-84
2023/07/19 03:50:23;;;;;;;3.58;2.13;;;24.50;70.30;;;;;;5025337;28;20409;-84
2023/07/19 03:52:49;;;;;;;5.22;2.38;;;24.50;70.60;;;;;;5034526;28;20409;-84
2023/07/19 03:55:53;;;;;;;6.85;2.15;;;24.40;70.60;;;;;;5028711;28;20404;-85
2023/07/19 03:58:28;;;;;;;6.10;2.30;;;24.50;70.70;;;;;;5060719;28;20480;-85
2023/07/19 04:00:59;;;;;;;6.47;2.70;;;24.50;71.10;;;;;;5036301;28;20405;-84
2023/07/19 04:03:27;;;;;;;9.73;2.57;;;24.50;71.40;;;;;;5026447;28;20409;-85
2023/07/19 04:05:54;;;;;;;6.85;2.50;;;24.50;71.30;;;;;;5033629;28;20452;-84
2023/07/19 04:08:21;;;;;;;4.53;2.20;;;24.50;71.40;;;;;;5045217;28;20819;-85
2023/07/19 04:10:49;;;;;;;3.42;2.10;;;24.50;71.50;;;;;;5027736;28;20467;-84
2023/07/19 04:13:16;;;;;;;4.20;2.20;;;24.50;71.70;;;;;;5034521;28;20464;-84
2023/07/19 04:15:52;;;;;;;4.60;2.22;;;24.50;72.20;;;;;;5038418;28;20420;-85
2023/07/19 04:18:20;;;;;;;5.97;1.90;;;24.50;72.40;;;;;;5055232;28;20471;-85
2023/07/19 04:20:54;;;;;;;3.30;2.28;;;24.50;73.10;;;;;;5029220;28;20499;-85
2023/07/19 04:23:21;;;;;;;3.22;2.15;;;24.50;73.80;;;;;;5044292;28;20408;-85
2023/07/19 04:25:50;;;;;;;4.85;2.10;;;24.60;73.80;;;;;;5025931;28;20423;-85
2023/07/19 04:28:17;;;;;;;3.72;2.20;;;24.70;73.80;;;;;;5028457;28;20409;-85
2023/07/19 04:30:56;;;;;;;8.85;2.60;;;24.70;74.60;;;;;;5041892;28;20800;-85
2023/07/19 04:33:23;;;;;;;4.32;2.30;;;24.70;74.00;;;;;;5050247;28;20414;-86
2023/07/19 04:35:50;;;;;;;4.18;2.05;;;24.80;74.60;;;;;;5030854;28;20402;-86
2023/07/19 04:38:17;;;;;;;4.40;2.30;;;24.90;75.80;;;;;;5029135;28;20416;-86
2023/07/19 04:40:43;;;;;;;3.50;2.20;;;25.00;75.50;;;;;;5027849;28;20421;-86
2023/07/19 04:43:09;;;;;;;2.88;2.15;;;25.00;74.40;;;;;;5040471;28;20414;-86
2023/07/19 04:45:35;;;;;;;6.03;2.50;;;25.10;74.80;;;;;;5048473;28;20420;-86
2023/07/19 04:48:03;;;;;;;6.93;2.40;;;25.30;75.90;;;;;;5024887;28;20414;-86
2023/07/19 04:50:30;;;;;;;3.55;2.03;;;25.30;73.90;;;;;;5044579;28;20440;-86
2023/07/19 04:52:56;;;;;;;6.27;2.30;;;25.40;73.50;;;;;;5050442;28;20411;-86
2023/07/19 04:55:22;;;;;;;4.75;2.20;;;25.50;73.30;;;;;;5037484;28;21073;-86
2023/07/19 04:57:48;;;;;;;3.25;2.10;;;25.60;74.00;;;;;;5026912;28;20575;-86
2023/07/19 05:00:16;;;;;;;4.25;2.30;;;25.60;74.00;;;;;;5039723;28;20502;-85
2023/07/19 05:02:42;;;;;;;4.20;2.40;;;25.70;73.30;;;;;;5040569;28;20436;-86
2023/07/19 05:05:14;;;;;;;4.18;2.35;;;25.80;73.40;;;;;;5059835;28;20401;-86
2023/07/19 05:07:41;;;;;;;4.15;2.20;;;25.90;72.20;;;;;;5064470;28;21215;-85
2023/07/19 05:10:09;;;;;;;4.10;2.00;;;25.90;71.00;;;;;;5049766;28;20416;-85
2023/07/19 05:12:36;;;;;;;3.80;2.38;;;26.00;72.30;;;;;;5046409;28;20446;-85
2023/07/19 05:15:09;;;;;;;3.92;2.20;;;26.10;72.40;;;;;;5044311;28;20576;-86
2023/07/19 05:17:35;;;;;;;6.93;2.20;;;26.10;72.80;;;;;;5042877;28;20405;-85
2023/07/19 05:20:05;;;;;;;4.03;2.15;;;26.20;72.20;;;;;;5059319;28;20762;-85
2023/07/19 05:22:41;;;;;;;8.07;2.53;;;26.20;72.00;;;;;;5025280;28;20767;-86
2023/07/19 05:25:14;;;;;;;3.05;2.13;;;26.30;71.80;;;;;;5039905;28;20458;-85
2023/07/19 05:27:40;;;;;;;6.43;2.20;;;26.40;73.40;;;;;;5066218;28;20419;-85
2023/07/19 05:30:08;;;;;;;4.97;2.25;;;26.40;71.60;;;;;;5030248;28;20405;-85
2023/07/19 05:32:34;;;;;;;6.00;2.30;;;26.40;71.80;;;;;;5025657;28;20396;-85
2023/07/19 05:35:00;;;;;;;4.30;2.30;;;26.50;72.80;;;;;;5030065;28;20400;-85
2023/07/19 05:37:27;;;;;;;4.00;2.22;;;26.50;72.70;;;;;;5033787;28;20416;-86
2023/07/19 05:39:54;;;;;;;6.32;2.20;;;26.60;72.90;;;;;;5063234;28;20419;-85
2023/07/19 05:42:20;;;;;;;6.10;2.37;;;26.60;73.00;;;;;;5029272;28;21137;-86
2023/07/19 05:44:46;;;;;;;5.60;2.58;;;26.70;73.10;;;;;;5035142;28;20409;-85
2023/07/19 05:47:13;;;;;;;4.40;2.35;;;26.70;72.50;;;;;;5063194;28;20504;-85
2023/07/19 05:49:39;;;;;;;5.25;2.28;;;26.80;72.20;;;;;;5049400;28;21261;-85
2023/07/19 05:52:06;;;;;;;3.80;2.30;;;26.90;71.90;;;;;;5040945;28;20425;-85
2023/07/19 05:54:33;;;;;;;4.75;2.33;;;27.00;72.00;;;;;;5065317;28;20404;-84
2023/07/19 05:57:07;;;;;;;7.60;2.57;;;27.00;73.00;;;;;;5046962;28;20416;-85
2023/07/19 05:59:34;;;;;;;4.30;2.08;;;27.20;71.70;;;;;;5026400;28;20413;-85
2023/07/19 06:02:00;;;;;;;3.42;2.15;;;27.20;72.30;;;;;;5019664;28;20413;-85
2023/07/19 06:04:27;;;;;;;7.72;2.55;;;27.20;73.40;;;;;;5023015;28;20406;-86
2023/07/19 06:06:53;;;;;;;4.93;2.30;;;27.30;73.40;;;;;;5042024;28;20408;-85
2023/07/19 06:09:20;;;;;;;4.90;2.30;;;27.40;73.80;;;;;;5031765;28;20437;-85
2023/07/19 06:11:46;;;;;;;5.70;2.40;;;27.40;73.40;;;;;;5040431;28;20457;-84
2023/07/19 06:14:12;;;;;;;4.40;2.20;;;27.50;72.90;;;;;;5044082;28;20404;-85
2023/07/19 06:16:40;;;;;;;8.57;2.40;;;27.60;71.90;;;;;;5027740;28;20393;-86
2023/07/19 06:19:06;;;;;;;7.65;2.53;;;27.70;71.90;;;;;;5053187;28;20897;-85
2023/07/19 06:21:32;;;;;;;3.30;2.30;;;27.80;71.30;;;;;;5064069;28;20444;-85
2023/07/19 06:24:06;;;;;;;8.87;2.60;;;27.90;71.40;;;;;;5050682;28;20414;-84
2023/07/19 06:26:36;;;;;;;9.45;2.60;;;27.90;72.70;;;;;;5046418;28;20410;-84
2023/07/19 06:29:03;;;;;;;6.20;2.53;;;28.00;70.50;;;;;;5025091;28;20412;-85
2023/07/19 06:31:29;;;;;;;6.13;2.42;;;28.10;71.10;;;;;;5065342;28;20411;-85
2023/07/19 06:33:56;;;;;;;5.83;2.30;;;28.20;71.10;;;;;;5046868;28;20746;-86
2023/07/19 06:36:28;;;;;;;7.50;2.22;;;28.20;71.30;;;;;;5043281;28;20718;-85
2023/07/19 06:38:56;;;;;;;10.80;2.60;;;28.40;71.60;;;;;;5036947;28;20486;-85
2023/07/19 06:41:25;;;;;;;5.80;2.50;;;28.50;70.00;;;;;;5023728;28;20401;-85
2023/07/19 06:43:51;;;;;;;4.68;2.50;;;28.50;71.40;;;;;;5049275;28;20412;-85
2023/07/19 06:46:17;;;;;;;4.10;2.50;;;28.60;71.20;;;;;;5037691;28;20401;-84
2023/07/19 06:48:57;;;;;;;8.52;2.40;;;28.70;71.30;;;;;;5035868;28;20897;-87
2023/07/19 06:51:24;;;;;;;4.07;2.28;;;28.70;71.00;;;;;;5028999;28;20396;-85
2023/07/19 06:53:51;;;;;;;6.38;2.45;;;28.80;71.20;;;;;;5046002;28;20899;-85
2023/07/19 06:56:17;;;;;;;6.20;2.60;;;29.00;70.60;;;;;;5052664;28;20410;-85
2023/07/19 06:58:43;;;;;;;7.10;2.53;;;29.00;71.10;;;;;;5025359;28;20425;-83
2023/07/19 07:01:18;;;;;;;6.72;2.80;;;29.20;70.90;;;;;;5046190;28;20399;-86
2023/07/19 07:03:44;;;;;;;3.60;2.35;;;29.20;71.20;;;;;;5045210;28;21051;-85
2023/07/19 07:06:10;;;;;;;4.25;2.60;;;29.30;70.40;;;;;;5035295;28;20412;-87
2023/07/19 07:08:37;;;;;;;4.60;2.50;;;29.40;70.90;;;;;;5023494;28;20753;-84
2023/07/19 07:11:04;;;;;;;4.78;2.60;;;29.50;72.00;;;;;;5026790;28;20404;-85
2023/07/19 07:13:31;;;;;;;9.07;2.63;;;29.70;72.40;;;;;;5020019;28;20503;-85
2023/07/19 07:16:01;;;;;;;4.25;2.60;;;29.80;72.20;;;;;;5056648;28;20426;-86
2023/07/19 07:18:53;;;;;;;3.17;2.25;;;29.80;72.00;;;;;;5066555;28;20734;-86
2023/07/19 07:21:20;;;;;;;5.05;2.50;;;29.90;72.00;;;;;;5053499;28;20413;-87
2023/07/19 07:23:46;;;;;;;4.15;2.40;;;30.00;72.30;;;;;;5047760;28;20399;-85
2023/07/19 07:26:14;;;;;;;6.47;2.60;;;30.20;72.20;;;;;;5036366;28;20411;-86
2023/07/19 07:28:41;;;;;;;5.47;2.30;;;30.30;72.00;;;;;;5030799;28;20928;-85
2023/07/19 07:31:08;;;;;;;5.10;2.40;;;30.40;70.50;;;;;;5042437;28;20409;-85
2023/07/19 07:33:39;;;;;;;4.43;2.63;;;30.50;71.10;;;;;;5027268;28;20413;-85
2023/07/19 07:36:05;;;;;;;7.38;2.63;;;30.60;70.70;;;;;;5063126;28;20504;-84
2023/07/19 07:38:34;;;;;;;5.43;2.70;;;30.70;73.30;;;;;;5050505;28;20917;-85
2023/07/19 07:41:11;;;;;;;5.65;2.90;;;30.90;74.90;;;;;;5020003;28;21819;-88
2023/07/19 07:43:38;;;;;;;5.25;2.53;;;30.90;74.70;;;;;;5057079;28;20420;-84
2023/07/19 07:46:06;;;;;;;6.13;2.70;;;31.00;75.20;;;;;;5050109;28;20498;-89
2023/07/19 07:48:51;;;;;;;7.85;2.88;;;31.20;76.20;;;;;;5025504;28;20469;-90
2023/07/19 07:51:19;;;;;;;6.15;2.83;;;31.30;75.30;;;;;;5025809;28;20441;-84
2023/07/19 07:53:45;;;;;;;5.53;2.50;;;31.30;77.00;;;;;;5034682;28;20396;-87
2023/07/19 07:56:24;;;;;;;5.90;2.42;;;31.50;75.70;;;;;;5036448;28;20407;-86
2023/07/19 07:58:52;;;;;;;5.37;2.77;;;31.60;74.40;;;;;;5036149;28;20929;-84
2023/07/19 08:01:21;;;;;;;8.98;2.63;;;31.60;74.20;;;;;;5027134;28;20413;-89
2023/07/19 08:03:52;;;;;;;5.25;2.53;;;31.70;78.30;;;;;;5029846;28;20433;-84
2023/07/19 08:06:21;;;;;;;6.05;2.70;;;31.80;77.50;;;;;;5058427;28;20413;-85
2023/07/19 08:08:48;;;;;;;7.47;2.80;;;31.90;80.40;;;;;;5025285;28;20445;-83
2023/07/19 08:11:14;;;;;;;4.95;2.60;;;32.00;80.90;;;;;;5043167;28;20861;-88
2023/07/19 08:13:40;;;;;;;5.10;2.50;;;32.10;79.20;;;;;;5025464;28;20399;-85
2023/07/19 08:16:07;;;;;;;7.85;3.03;;;32.20;77.10;;;;;;5039880;28;20755;-85
2023/07/19 08:18:34;;;;;;;4.10;2.80;;;32.30;75.60;;;;;;5024432;28;20503;-82
2023/07/19 08:21:02;;;;;;;7.50;2.55;;;32.40;77.80;;;;;;5042222;28;20418;-86
2023/07/19 08:23:28;;;;;;;7.53;2.60;;;32.60;76.60;;;;;;5030566;28;20435;-86
2023/07/19 08:25:56;;;;;;;4.67;2.43;;;32.60;76.70;;;;;;5049318;28;20411;-83
2023/07/19 08:28:27;;;;;;;5.00;2.67;;;32.70;76.10;;;;;;5044733;28;20776;-87
2023/07/19 08:30:55;;;;;;;6.80;2.50;;;32.80;74.90;;;;;;5066502;28;20426;-85
2023/07/19 08:33:24;;;;;;;5.43;2.35;;;33.00;72.80;;;;;;5049305;28;20925;-84
2023/07/19 08:35:51;;;;;;;3.33;2.22;;;33.10;75.20;;;;;;5037339;28;20404;-86
2023/07/19 08:38:20;;;;;;;6.53;2.45;;;33.30;77.70;;;;;;5036600;28;20438;-90
2023/07/19 08:41:07;;;;;;;5.00;2.50;;;33.40;75.50;;;;;;5032869;28;20909;-84
2023/07/19 08:43:43;;;;;;;6.82;2.60;;;33.50;74.30;;;;;;5038075;28;20775;-84
2023/07/19 08:46:22;;;;;;;6.40;2.67;;;33.60;76.10;;;;;;5050712;28;20415;-89
2023/07/19 08:48:49;;;;;;;3.97;2.45;;;33.70;78.50;;;;;;5028142;28;20413;-82
2023/07/19 08:51:18;;;;;;;6.68;2.45;;;33.80;75.60;;;;;;5013570;28;20942;-83
2023/07/19 08:53:45;;;;;;;7.03;2.45;;;33.80;78.50;;;;;;5045746;28;20480;-83
2023/07/19 08:56:14;;;;;;;7.88;2.40;;;33.80;80.40;;;;;;5026125;28;20555;-85
2023/07/19 08:58:43;;;;;;;4.28;2.47;;;33.90;80.60;;;;;;5030566;28;20405;-86
2023/07/19 09:01:11;;;;;;;4.35;2.38;;;34.10;82.70;;;;;;5024823;28;21788;-85
2023/07/19 09:03:41;;;;;;;6.03;2.50;;;34.30;83.40;;;;;;5038328;28;20456;-88
2023/07/19 09:06:07;;;;;;;6.63;2.50;;;34.40;82.50;;;;;;5040911;28;20985;-87
2023/07/19 09:08:39;;;;;;;5.07;2.28;;;34.40;83.30;;;;;;5024391;28;20403;-85
2023/07/19 09:11:08;;;;;;;6.45;2.70;;;34.40;84.00;;;;;;5022752;28;20520;-88
2023/07/19 09:13:38;;;;;;;7.13;2.60;;;34.40;83.00;;;;;;5012922;28;20417;-89
2023/07/19 09:16:42;;;;;;;6.28;2.78;;;34.50;85.10;;;;;;5041770;28;20978;-90
2023/07/19 09:19:10;;;;;;;7.00;2.57;;;34.50;84.00;;;;;;4944996;28;20495;-84
2023/07/19 09:21:47;;;;;;;5.63;2.60;;;34.60;84.00;;;;;;5010154;28;20485;-85
2023/07/19 09:24:14;;;;;;;7.75;2.70;;;34.60;83.50;;;;;;5023837;28;20419;-84
2023/07/19 09:26:59;;;;;;;6.13;2.50;;;34.70;84.30;;;;;;5049088;28;20396;-87
2023/07/19 09:29:35;;;;;;;7.13;2.65;;;34.80;83.90;;;;;;5045947;28;20427;-94
2023/07/19 09:32:03;;;;;;;7.18;2.50;;;34.80;83.90;;;;;;5038286;28;20421;-85
2023/07/19 09:34:38;;;;;;;4.50;2.30;;;34.80;84.50;;;;;;5028814;28;20418;-86
2023/07/19 09:37:05;;;;;;;5.38;2.50;;;34.90;83.10;;;;;;5043034;28;20412;-91
2023/07/19 09:39:35;;;;;;;5.45;2.40;;;35.20;83.00;;;;;;5010577;28;20424;-85
2023/07/19 09:42:03;;;;;;;5.35;2.72;;;35.20;84.30;;;;;;5018283;28;20407;-89
2023/07/19 09:44:32;;;;;;;9.05;2.50;;;35.30;82.20;;;;;;5024596;28;20558;-83
2023/07/19 09:47:01;;;;;;;5.93;2.70;;;35.10;79.60;;;;;;5031694;28;20405;-85
2023/07/19 09:49:27;;;;;;;4.77;2.50;;;35.00;81.60;;;;;;5041807;28;20417;-89
2023/07/19 09:51:56;;;;;;;5.97;2.53;;;35.00;83.50;;;;;;5041699;28;20441;-87
2023/07/19 09:54:26;;;;;;;6.93;2.57;;;34.90;80.60;;;;;;5021798;28;20533;-89
2023/07/19 09:57:03;;;;;;;7.72;2.63;;;35.00;82.60;;;;;;5039742;28;20413;-88
2023/07/19 09:59:50;;;;;;;7.00;2.60;;;35.10;81.80;;;;;;5039728;28;20990;-85
2023/07/19 10:02:17;;;;;;;6.25;2.47;;;35.30;80.30;;;;;;5024858;28;20419;-86
2023/07/19 10:04:44;;;;;;;8.57;2.50;;;35.40;80.00;;;;;;5045073;28;20463;-84
2023/07/19 10:07:19;;;;;;;5.28;2.50;;;35.40;78.60;;;;;;5038518;28;20500;-84
2023/07/19 10:09:49;;;;;;;6.35;2.53;;;35.60;82.30;;;;;;5028999;28;20432;-84
2023/07/19 10:12:16;;;;;;;5.18;2.70;;;35.50;81.60;;;;;;5021475;28;20649;-83
2023/07/19 10:15:17;;;;;;;7.35;2.47;;;35.70;78.10;;;;;;5030580;28;20609;-89
2023/07/19 10:18:18;;;;;;;8.83;2.47;;;35.60;82.60;;;;;;4992494;28;20425;-90
2023/07/19 10:21:05;;;;;;;5.50;2.50;;;35.70;83.50;;;;;;5021234;28;20800;-88
2023/07/19 10:23:34;;;;;;;5.78;2.50;;;35.60;83.90;;;;;;5036513;28;21331;-89
2023/07/19 10:26:06;;;;;;;6.57;2.53;;;35.60;83.50;;;;;;5027427;28;20420;-83
2023/07/19 10:28:38;;;;;;;5.95;2.70;;;35.40;83.20;;;;;;5028798;28;20420;-89
2023/07/19 10:31:07;;;;;;;5.63;2.40;;;35.40;87.10;;;;;;5021434;28;20426;-93
2023/07/19 10:33:35;;;;;;;6.38;2.40;;;35.20;86.30;;;;;;5024662;28;20471;-87
2023/07/19 10:36:09;;;;;;;7.05;2.60;;;35.10;87.80;;;;;;5026647;28;20941;-89
2023/07/19 10:38:36;;;;;;;7.53;2.42;;;34.90;88.40;;;;;;5022729;28;20417;-92
2023/07/19 10:41:20;;;;;;;4.35;2.60;;;34.80;90.40;;;;;;5036660;28;20437;-85
2023/07/19 10:43:50;;;;;;;8.88;2.47;;;34.80;90.90;;;;;;5027686;28;20437;-94
2023/07/19 10:46:18;;;;;;;7.07;2.50;;;34.70;90.70;;;;;;5020831;28;20900;-85
2023/07/19 10:48:48;;;;;;;9.85;2.63;;;34.80;90.80;;;;;;5025585;28;20418;-89
2023/07/19 10:51:19;;;;;;;6.40;2.63;;;34.70;91.00;;;;;;5009928;28;20427;-88
2023/07/19 10:53:57;;;;;;;5.78;2.38;;;34.70;90.80;;;;;;5041538;28;20430;-90
2023/07/19 10:56:23;;;;;;;6.03;2.40;;;34.60;88.80;;;;;;5026004;28;20422;-87
2023/07/19 10:58:50;;;;;;;4.93;2.38;;;34.60;90.50;;;;;;5025237;28;20401;-85
2023/07/19 11:01:17;;;;;;;6.20;2.58;;;34.40;90.70;;;;;;5036608;28;20415;-88
2023/07/19 11:03:48;;;;;;;8.35;2.33;;;34.40;91.00;;;;;;5022853;28;20432;-83
2023/07/19 11:06:15;;;;;;;9.18;2.50;;;34.30;91.00;;;;;;5019504;28;20504;-83
2023/07/19 11:08:46;;;;;;;5.00;2.30;;;34.40;91.10;;;;;;5023044;28;20767;-86
2023/07/19 11:11:15;;;;;;;3.95;2.33;;;34.40;91.00;;;;;;5038635;28;20402;-84
2023/07/19 11:13:41;;;;;;;7.22;2.50;;;34.40;90.90;;;;;;5027113;28;20406;-82
2023/07/19 11:16:10;;;;;;;5.57;2.50;;;34.40;88.20;;;;;;5019295;28;20402;-87
2023/07/19 11:18:40;;;;;;;5.05;2.50;;;34.50;88.10;;;;;;5036851;28;20407;-84
2023/07/19 11:21:08;;;;;;;3.75;2.00;;;34.50;90.40;;;;;;5020081;28;20920;-86
2023/07/19 11:23:44;;;;;;;6.43;2.38;;;34.60;80.30;;;;;;5037188;28;20414;-88
2023/07/19 11:26:13;;;;;;;5.45;2.22;;;34.60;88.40;;;;;;5032848;28;20403;-86
2023/07/19 11:28:59;;;;;;;4.80;2.30;;;34.60;85.70;;;;;;5019900;28;20428;-84
2023/07/19 11:31:40;;;;;;;3.90;2.35;;;34.50;88.60;;;;;;5038204;28;20437;-86
2023/07/19 11:34:12;;;;;;;5.68;2.10;;;34.70;88.00;;;;;;5016878;28;20927;-86
2023/07/19 11:36:49;;;;;;;6.60;2.40;;;34.70;86.00;;;;;;5042829;28;20410;-84
2023/07/19 11:39:26;;;;;;;7.57;2.40;;;34.60;90.00;;;;;;5046860;28;20429;-84
2023/07/19 11:41:52;;;;;;;6.40;2.58;;;34.50;89.00;;;;;;5034140;28;20419;-86
2023/07/19 11:44:24;;;;;;;4.43;2.33;;;34.50;90.00;;;;;;5034497;28;20415;-85
2023/07/19 11:46:55;;;;;;;6.45;2.20;;;34.40;89.10;;;;;;5045760;28;20426;-85
2023/07/19 11:49:41;;;;;;;5.10;2.47;;;34.40;90.20;;;;;;5043443;28;20420;-89
2023/07/19 11:52:08;;;;;;;3.30;2.10;;;34.50;86.80;;;;;;5031260;28;20406;-91
2023/07/19 11:54:44;;;;;;;7.15;2.20;;;34.50;82.70;;;;;;5037947;28;21162;-83
2023/07/19 11:57:21;;;;;;;7.95;2.33;;;34.50;85.00;;;;;;5049691;28;20438;-86
2023/07/19 11:59:49;;;;;;;4.43;2.25;;;34.50;81.30;;;;;;5026999;28;20427;-83
2023/07/19 12:02:16;;;;;;;5.60;2.20;;;34.50;84.40;;;;;;5032177;28;20416;-85
2023/07/19 12:04:43;;;;;;;3.80;2.10;;;34.50;83.20;;;;;;5044367;28;20412;-83
2023/07/19 12:07:15;;;;;;;4.10;2.05;;;34.50;78.10;;;;;;5038484;28;20905;-88
2023/07/19 12:09:45;;;;;;;3.72;2.15;;;34.40;75.90;;;;;;5040836;28;20434;-86
2023/07/19 12:12:17;;;;;;;7.20;2.33;;;34.50;79.90;;;;;;5050533;28;20395;-86
2023/07/19 12:14:44;;;;;;;10.05;2.40;;;34.40;76.00;;;;;;5026419;28;20455;-85
2023/07/19 12:17:10;;;;;;;5.90;2.27;;;34.50;74.10;;;;;;5041746;28;20407;-82
2023/07/19 12:19:37;;;;;;;5.40;2.20;;;34.60;70.10;;;;;;5024235;28;20417;-84
2023/07/19 12:22:04;;;;;;;6.72;2.25;;;34.50;69.30;;;;;;5035074;28;20409;-84
2023/07/19 12:24:31;;;;;;;6.35;2.15;;;34.50;72.20;;;;;;5045740;28;20913;-92
2023/07/19 12:26:57;;;;;;;4.95;2.33;;;34.60;77.60;;;;;;5031158;28;20412;-89
2023/07/19 12:29:25;;;;;;;6.03;2.22;;;34.60;78.20;;;;;;5025335;28;20417;-87
2023/07/19 12:31:56;;;;;;;6.13;2.30;;;34.60;76.10;;;;;;5021039;28;20915;-86
2023/07/19 12:34:28;;;;;;;5.10;2.13;;;34.50;76.10;;;;;;5035027;28;20409;-85
2023/07/19 12:36:56;;;;;;;3.38;2.10;;;34.60;75.50;;;;;;5044908;28;20805;-84
2023/07/19 12:39:24;;;;;;;6.50;2.17;;;34.60;72.80;;;;;;5024393;28;20479;-86
2023/07/19 12:41:55;;;;;;;4.40;2.25;;;34.60;77.50;;;;;;5026754;28;20504;-84
2023/07/19 12:44:24;;;;;;;3.13;1.92;;;34.60;73.50;;;;;;5035406;28;20412;-84
2023/07/19 12:46:51;;;;;;;5.10;2.25;;;34.50;71.20;;;;;;5053688;28;20494;-86
2023/07/19 12:49:21;;;;;;;5.70;2.00;;;34.60;70.40;;;;;;5024244;28;20526;-86
2023/07/19 12:51:49;;;;;;;5.03;2.30;;;34.50;73.90;;;;;;5029634;28;20393;-84
2023/07/19 12:54:15;;;;;;;3.42;2.30;;;34.60;74.40;;;;;;5029054;28;20409;-85
2023/07/19 12:56:42;;;;;;;4.70;2.08;;;34.60;75.30;;;;;;5051684;28;20399;-83
2023/07/19 12:59:13;;;;;;;4.83;2.17;;;34.50;75.40;;;;;;5021206;28;20423;-86